Time;durP1;ratioP1;P1;durP2;ratioP2;P2;SDS_P1;SDS_P2;PMS_P1;PMS_P2;Temp;Humidity;BMP_temperature;BMP_pressure;BME280_temperature;BME280_humidity;BME280_pressure;Samples;Min_cycle;Max_cycle;Signal;HPM_P1;HPM_P2
2022/01/04 00:02:21;;;;;;;34.28;15.77;;;;;;;;;;5038347;28;20087;-70
2022/01/04 00:04:49;;;;;;;37.05;15.18;;;;;;;;;;5039482;28;20026;-70
2022/01/04 00:07:17;;;;;;;35.40;15.90;;;;;;;;;;5039373;28;20036;-70
2022/01/04 00:09:45;;;;;;;35.40;15.93;;;;;;;;;;5039414;28;20075;-70
2022/01/04 00:15:01;;;;;;;33.83;15.18;;;;;;;;;;5039264;28;20092;-70
2022/01/04 00:17:32;;;;;;;32.55;16.08;;;;;;;;;;5039689;28;20032;-70
2022/01/04 00:19:59;;;;;;;37.33;15.73;;;;;;;;;;5039242;28;20029;-70
2022/01/04 00:22:26;;;;;;;36.50;15.98;;;;;;;;;;5039187;28;20104;-70
2022/01/04 00:24:54;;;;;;;37.88;15.98;;;;;;;;;;5039067;28;20025;-70
2022/01/04 00:27:22;;;;;;;32.95;15.38;;;;;;;;;;5038058;28;20027;-70
2022/01/04 00:29:49;;;;;;;35.47;16.23;;;;;;;;;;5039057;28;20036;-70
2022/01/04 00:32:16;;;;;;;35.38;15.02;;;;;;;;;;5038967;28;20064;-69
2022/01/04 00:34:44;;;;;;;39.78;18.20;;;;;;;;;;5038908;28;20017;-70
2022/01/04 00:37:11;;;;;;;42.20;18.25;;;;;;;;;;5038965;28;20049;-70
2022/01/04 00:39:39;;;;;;;41.90;18.85;;;;;;;;;;5038828;28;20014;-70
2022/01/04 00:42:06;;;;;;;39.25;18.08;;;;;;;;;;5038792;28;20026;-70
2022/01/04 00:44:34;;;;;;;49.80;19.95;;;;;;;;;;5038802;28;20053;-70
2022/01/04 00:47:02;;;;;;;40.70;18.10;;;;;;;;;;5038791;28;20026;-70
2022/01/04 00:49:31;;;;;;;43.42;18.40;;;;;;;;;;5038555;28;20354;-70
2022/01/04 00:52:01;;;;;;;36.97;17.98;;;;;;;;;;5038620;28;20022;-70
2022/01/04 00:54:28;;;;;;;41.78;18.38;;;;;;;;;;5038400;28;20021;-70
2022/01/04 00:56:55;;;;;;;39.22;16.70;;;;;;;;;;5037475;28;20033;-70
2022/01/04 00:59:23;;;;;;;38.67;16.38;;;;;;;;;;5037984;28;20022;-70
2022/01/04 01:01:51;;;;;;;40.83;16.90;;;;;;;;;;5038552;28;20373;-70
2022/01/04 01:04:18;;;;;;;39.17;16.58;;;;;;;;;;5038360;28;20037;-70
2022/01/04 01:06:46;;;;;;;42.33;16.50;;;;;;;;;;5038311;28;20056;-70
2022/01/04 01:09:13;;;;;;;37.75;16.02;;;;;;;;;;5038334;28;20029;-70
2022/01/04 01:11:41;;;;;;;39.30;14.23;;;;;;;;;;5037243;28;20410;-70
2022/01/04 01:14:09;;;;;;;41.20;16.05;;;;;;;;;;5038233;28;20030;-70
2022/01/04 01:16:36;;;;;;;39.38;16.33;;;;;;;;;;5038443;28;20030;-70
2022/01/04 01:19:04;;;;;;;40.17;16.52;;;;;;;;;;5037107;28;20025;-70
2022/01/04 01:21:34;;;;;;;36.72;14.68;;;;;;;;;;5038166;28;20021;-70
2022/01/04 01:24:04;;;;;;;34.00;11.73;;;;;;;;;;5037904;28;20100;-70
2022/01/04 01:26:31;;;;;;;26.35;10.35;;;;;;;;;;5037695;28;20017;-70
2022/01/04 01:28:59;;;;;;;32.97;10.65;;;;;;;;;;5037813;28;20021;-70
2022/01/04 01:31:28;;;;;;;33.08;10.57;;;;;;;;;;5036676;28;20429;-70
2022/01/04 01:33:55;;;;;;;19.40;9.55;;;;;;;;;;5037809;28;20322;-70
2022/01/04 01:36:23;;;;;;;21.40;8.60;;;;;;;;;;5037795;28;20143;-70
2022/01/04 01:38:50;;;;;;;19.70;8.63;;;;;;;;;;5037599;28;20416;-71
2022/01/04 01:41:18;;;;;;;15.55;7.10;;;;;;;;;;5037659;28;20107;-71
2022/01/04 01:43:47;;;;;;;18.48;7.07;;;;;;;;;;5036499;28;20030;-71
2022/01/04 01:46:14;;;;;;;18.55;7.68;;;;;;;;;;5037561;28;20120;-68
2022/01/04 01:48:42;;;;;;;21.70;6.60;;;;;;;;;;5037228;28;20108;-69
2022/01/04 01:51:09;;;;;;;21.85;8.02;;;;;;;;;;5037422;28;20307;-71
2022/01/04 01:53:36;;;;;;;24.08;7.70;;;;;;;;;;5037166;28;20104;-69
2022/01/04 01:56:04;;;;;;;23.05;8.07;;;;;;;;;;5037342;28;20346;-70
2022/01/04 01:58:35;;;;;;;34.72;8.60;;;;;;;;;;5037196;28;20017;-69
2022/01/04 02:01:02;;;;;;;35.70;8.25;;;;;;;;;;5036093;28;20037;-70
2022/01/04 02:03:29;;;;;;;27.08;9.27;;;;;;;;;;5037276;28;20083;-70
2022/01/04 02:05:57;;;;;;;42.58;20.02;;;;;;;;;;5034844;28;20407;-71
2022/01/04 02:08:25;;;;;;;30.13;19.20;;;;;;;;;;5035710;28;20029;-69
2022/01/04 02:10:52;;;;;;;72.32;48.05;;;;;;;;;;5036124;28;20325;-70
2022/01/04 02:13:20;;;;;;;184.50;86.10;;;;;;;;;;5035509;28;20025;-69
2022/01/04 02:15:48;;;;;;;154.93;73.50;;;;;;;;;;5036804;28;20061;-70
2022/01/04 02:18:15;;;;;;;75.85;38.38;;;;;;;;;;5036808;28;20025;-69
2022/01/04 02:20:43;;;;;;;65.30;42.70;;;;;;;;;;5036758;28;20442;-69
2022/01/04 02:23:13;;;;;;;551.80;272.05;;;;;;;;;;5035358;28;20056;-70
2022/01/04 02:25:40;;;;;;;218.55;119.22;;;;;;;;;;5036614;28;20025;-70
2022/01/04 02:28:08;;;;;;;57.25;32.05;;;;;;;;;;5035559;28;20025;-71
2022/01/04 02:30:38;;;;;;;60.45;39.13;;;;;;;;;;5035411;28;20034;-69
2022/01/04 02:33:05;;;;;;;46.13;29.73;;;;;;;;;;5035444;28;20087;-70
2022/01/04 02:35:33;;;;;;;45.05;23.92;;;;;;;;;;5035365;28;20104;-70
2022/01/04 02:38:03;;;;;;;41.92;22.00;;;;;;;;;;5035362;28;20113;-68
2022/01/04 02:40:31;;;;;;;97.55;60.30;;;;;;;;;;5035158;28;20100;-68
2022/01/04 02:43:00;;;;;;;184.65;102.82;;;;;;;;;;5036319;28;20021;-70
2022/01/04 02:45:30;;;;;;;81.68;47.35;;;;;;;;;;5035240;28;20034;-70
2022/01/04 02:47:57;;;;;;;95.30;60.42;;;;;;;;;;5036249;28;20045;-69
2022/01/04 02:50:24;;;;;;;59.50;36.42;;;;;;;;;;5036045;28;20053;-72
2022/01/04 02:52:50;;;;;;;40.30;21.67;;;;;;;;;;5035318;28;20022;-71
2022/01/04 02:55:18;;;;;;;40.58;27.23;;;;;;;;;;5036578;28;20434;-71
2022/01/04 02:57:46;;;;;;;33.03;19.92;;;;;;;;;;5036160;28;20033;-72
2022/01/04 03:00:15;;;;;;;150.32;79.97;;;;;;;;;;5034996;28;20033;-69
2022/01/04 03:02:43;;;;;;;60.70;38.20;;;;;;;;;;5034975;28;20029;-73
2022/01/04 03:05:11;;;;;;;41.45;26.83;;;;;;;;;;5035923;28;20434;-69
2022/01/04 03:07:38;;;;;;;40.95;28.17;;;;;;;;;;5035955;28;20029;-69
2022/01/04 03:10:06;;;;;;;29.20;18.60;;;;;;;;;;5034678;28;20040;-70
2022/01/04 03:12:35;;;;;;;26.60;16.77;;;;;;;;;;5036144;28;20022;-72
2022/01/04 03:15:15;;;;;;;26.85;14.82;;;;;;;;;;5034052;28;20046;-71
2022/01/04 03:17:44;;;;;;;26.60;15.48;;;;;;;;;;5017557;28;20065;-69
2022/01/04 03:20:11;;;;;;;30.90;16.55;;;;;;;;;;5034020;28;20025;-69
2022/01/04 03:22:39;;;;;;;26.58;15.20;;;;;;;;;;5033739;28;20112;-68
2022/01/04 03:25:07;;;;;;;53.80;28.42;;;;;;;;;;5034004;28;20038;-70
2022/01/04 03:27:34;;;;;;;193.82;84.65;;;;;;;;;;5033884;28;20040;-72
2022/01/04 03:30:02;;;;;;;40.72;24.25;;;;;;;;;;5033923;28;20040;-68
2022/01/04 03:32:29;;;;;;;31.10;20.77;;;;;;;;;;5033714;28;20033;-69
2022/01/04 03:34:57;;;;;;;53.80;30.13;;;;;;;;;;5033616;28;20051;-68
2022/01/04 03:37:24;;;;;;;58.63;32.80;;;;;;;;;;5033643;28;20044;-69
2022/01/04 03:39:51;;;;;;;66.43;40.67;;;;;;;;;;5033887;28;20124;-72
2022/01/04 03:42:19;;;;;;;51.88;30.90;;;;;;;;;;5033898;28;20030;-70
2022/01/04 03:44:47;;;;;;;49.28;28.77;;;;;;;;;;5033805;28;20382;-71
2022/01/04 03:47:16;;;;;;;30.75;17.92;;;;;;;;;;5033839;28;20105;-68
2022/01/04 03:49:42;;;;;;;22.52;13.75;;;;;;;;;;5033740;28;20052;-68
2022/01/04 03:52:10;;;;;;;26.23;13.60;;;;;;;;;;5033526;28;20053;-68
2022/01/04 03:54:38;;;;;;;24.80;13.68;;;;;;;;;;5033851;28;20028;-68
2022/01/04 03:57:06;;;;;;;25.40;14.95;;;;;;;;;;5034320;28;20079;-68
2022/01/04 03:59:33;;;;;;;31.60;17.10;;;;;;;;;;5035571;28;20102;-70
2022/01/04 04:02:01;;;;;;;32.85;18.80;;;;;;;;;;5035607;28;20024;-66
2022/01/04 04:04:28;;;;;;;32.40;18.17;;;;;;;;;;5032082;28;20104;-69
2022/01/04 04:06:56;;;;;;;33.35;19.38;;;;;;;;;;5035860;28;20099;-67
2022/01/04 04:09:23;;;;;;;30.10;17.45;;;;;;;;;;5035382;28;20029;-69
2022/01/04 04:11:51;;;;;;;46.60;27.50;;;;;;;;;;5035245;28;20025;-70
2022/01/04 04:14:18;;;;;;;34.08;20.17;;;;;;;;;;5035293;28;20026;-68
2022/01/04 04:16:46;;;;;;;33.17;18.65;;;;;;;;;;5035763;28;20025;-65
2022/01/04 04:19:13;;;;;;;42.80;26.42;;;;;;;;;;5034229;28;20033;-67
2022/01/04 04:21:41;;;;;;;38.78;22.95;;;;;;;;;;5028958;28;20284;-67
2022/01/04 04:24:08;;;;;;;33.72;19.55;;;;;;;;;;5026435;28;20018;-66
2022/01/04 04:26:36;;;;;;;34.38;19.70;;;;;;;;;;5023526;28;20117;-68
2022/01/04 04:29:04;;;;;;;39.13;21.65;;;;;;;;;;5023352;28;20058;-66
2022/01/04 04:31:31;;;;;;;45.63;24.42;;;;;;;;;;5018819;28;20029;-68
2022/01/04 04:33:59;;;;;;;39.20;21.20;;;;;;;;;;5024020;28;20047;-68
2022/01/04 04:36:27;;;;;;;62.95;38.35;;;;;;;;;;5027222;28;20445;-68
2022/01/04 04:38:59;;;;;;;59.97;36.38;;;;;;;;;;5032972;28;20056;-68
2022/01/04 04:41:30;;;;;;;60.67;35.97;;;;;;;;;;5038193;28;20017;-68
2022/01/04 04:43:57;;;;;;;95.10;52.30;;;;;;;;;;5038382;28;20025;-67
2022/01/04 04:46:25;;;;;;;154.15;73.47;;;;;;;;;;5034052;28;20026;-67
2022/01/04 04:48:52;;;;;;;150.90;72.22;;;;;;;;;;5031310;28;20033;-69
2022/01/04 04:51:19;;;;;;;165.88;89.70;;;;;;;;;;5038001;28;20082;-68
2022/01/04 04:53:48;;;;;;;97.68;54.72;;;;;;;;;;5036400;28;20029;-68
2022/01/04 04:56:16;;;;;;;69.40;42.28;;;;;;;;;;5036918;28;20029;-69
2022/01/04 04:58:44;;;;;;;82.93;54.55;;;;;;;;;;5037814;28;20029;-69
2022/01/04 05:01:11;;;;;;;70.05;44.03;;;;;;;;;;5038012;28;20036;-69
2022/01/04 05:03:39;;;;;;;80.47;50.20;;;;;;;;;;5034873;28;20367;-68
2022/01/04 05:06:07;;;;;;;44.45;27.52;;;;;;;;;;5025381;28;20053;-68
2022/01/04 05:08:35;;;;;;;30.55;17.33;;;;;;;;;;5027311;28;20021;-67
2022/01/04 05:11:02;;;;;;;26.58;14.57;;;;;;;;;;5020549;28;20319;-69
2022/01/04 05:13:30;;;;;;;27.00;15.50;;;;;;;;;;5015582;28;20034;-69
2022/01/04 05:15:58;;;;;;;28.48;18.40;;;;;;;;;;5033501;28;20033;-68
2022/01/04 05:18:25;;;;;;;29.80;17.90;;;;;;;;;;5034688;28;20080;-69
2022/01/04 05:20:53;;;;;;;24.98;16.13;;;;;;;;;;5035059;28;20021;-68
2022/01/04 05:23:20;;;;;;;28.67;15.00;;;;;;;;;;5034739;28;20191;-68
2022/01/04 05:25:48;;;;;;;22.30;13.07;;;;;;;;;;5035004;28;20104;-68
2022/01/04 05:28:16;;;;;;;23.00;13.52;;;;;;;;;;5035140;28;20025;-68
2022/01/04 05:30:43;;;;;;;26.95;14.40;;;;;;;;;;5032190;28;20120;-67
2022/01/04 05:33:14;;;;;;;26.33;13.60;;;;;;;;;;5035125;28;20056;-68
2022/01/04 05:35:41;;;;;;;26.13;14.35;;;;;;;;;;5034875;28;20442;-68
2022/01/04 05:38:10;;;;;;;24.23;14.60;;;;;;;;;;5034528;28;20032;-69
2022/01/04 05:40:38;;;;;;;37.17;20.95;;;;;;;;;;5018342;28;20131;-69
2022/01/04 05:43:08;;;;;;;31.30;17.48;;;;;;;;;;5001974;28;20437;-69
2022/01/04 05:45:36;;;;;;;37.55;21.95;;;;;;;;;;5028248;28;20042;-69
2022/01/04 05:48:04;;;;;;;61.55;38.38;;;;;;;;;;5027821;28;20403;-69
2022/01/04 05:50:31;;;;;;;56.85;34.45;;;;;;;;;;5025518;28;20418;-69
2022/01/04 05:52:59;;;;;;;108.90;76.18;;;;;;;;;;5026061;28;20080;-68
2022/01/04 05:55:26;;;;;;;92.00;55.10;;;;;;;;;;5027606;28;20080;-68
2022/01/04 05:57:54;;;;;;;113.22;69.38;;;;;;;;;;5026279;28;20314;-68
2022/01/04 06:00:21;;;;;;;178.40;109.43;;;;;;;;;;5025797;28;20288;-68
2022/01/04 06:02:49;;;;;;;170.27;92.15;;;;;;;;;;5025479;28;20021;-68
2022/01/04 06:05:16;;;;;;;135.95;76.80;;;;;;;;;;5026130;28;20030;-68
2022/01/04 06:07:44;;;;;;;131.95;78.65;;;;;;;;;;5016145;28;20049;-68
2022/01/04 06:10:14;;;;;;;155.98;88.45;;;;;;;;;;5024200;28;20108;-69
2022/01/04 06:15:11;;;;;;;213.38;95.82;;;;;;;;;;5016220;28;20125;-69
2022/01/04 06:17:41;;;;;;;165.13;71.75;;;;;;;;;;5023473;28;20061;-69
2022/01/04 06:20:10;;;;;;;131.75;66.03;;;;;;;;;;5008225;28;20509;-69
2022/01/04 06:22:37;;;;;;;72.93;42.95;;;;;;;;;;5003969;28;20069;-69
2022/01/04 06:25:06;;;;;;;53.72;33.22;;;;;;;;;;4997117;28;20045;-69
2022/01/04 06:27:33;;;;;;;48.92;27.85;;;;;;;;;;5005907;28;20149;-70
2022/01/04 06:30:01;;;;;;;62.70;37.08;;;;;;;;;;4988774;28;20033;-70
2022/01/04 06:32:28;;;;;;;48.53;26.95;;;;;;;;;;4987207;28;20479;-69
2022/01/04 06:34:56;;;;;;;59.92;33.63;;;;;;;;;;5005753;28;20474;-69
2022/01/04 06:37:23;;;;;;;54.65;32.10;;;;;;;;;;5013698;28;20061;-69
2022/01/04 06:39:51;;;;;;;63.00;34.72;;;;;;;;;;5013899;28;20033;-69
2022/01/04 06:42:19;;;;;;;57.45;34.60;;;;;;;;;;5018528;28;20021;-69
2022/01/04 06:44:47;;;;;;;80.05;49.83;;;;;;;;;;5033636;28;20116;-69
2022/01/04 06:47:14;;;;;;;88.53;51.75;;;;;;;;;;5034000;28;20113;-69
2022/01/04 06:49:41;;;;;;;105.03;59.92;;;;;;;;;;5033303;28;20049;-69
2022/01/04 06:52:09;;;;;;;111.45;61.63;;;;;;;;;;5033530;28;20041;-69
2022/01/04 06:54:37;;;;;;;171.15;89.93;;;;;;;;;;5033629;28;20033;-69
2022/01/04 06:57:04;;;;;;;169.25;90.63;;;;;;;;;;5039717;28;20037;-68
2022/01/04 06:59:33;;;;;;;167.35;88.65;;;;;;;;;;5029795;28;20431;-69
2022/01/04 07:02:00;;;;;;;153.90;82.53;;;;;;;;;;5024871;28;20068;-69
2022/01/04 07:04:28;;;;;;;117.72;65.50;;;;;;;;;;5024260;28;20033;-70
2022/01/04 07:06:55;;;;;;;231.02;130.38;;;;;;;;;;5024300;28;20049;-69
2022/01/04 07:09:23;;;;;;;163.77;98.97;;;;;;;;;;5024167;28;20075;-70
2022/01/04 07:11:52;;;;;;;153.32;87.63;;;;;;;;;;5024714;28;20036;-70
2022/01/04 07:14:20;;;;;;;122.75;70.75;;;;;;;;;;5024421;28;20361;-70
2022/01/04 07:16:47;;;;;;;160.80;106.47;;;;;;;;;;5025018;28;20283;-70
2022/01/04 07:19:15;;;;;;;149.70;95.22;;;;;;;;;;5023440;28;20074;-70
2022/01/04 07:21:43;;;;;;;161.32;105.57;;;;;;;;;;5035231;28;20017;-70
2022/01/04 07:24:10;;;;;;;151.57;97.70;;;;;;;;;;5035415;28;20035;-70
2022/01/04 07:26:38;;;;;;;155.45;96.32;;;;;;;;;;5025592;28;20056;-70
2022/01/04 07:29:05;;;;;;;196.20;118.63;;;;;;;;;;5030805;28;20044;-69
2022/01/04 07:31:33;;;;;;;168.73;93.07;;;;;;;;;;5034047;28;20026;-70
2022/01/04 07:34:00;;;;;;;161.38;91.72;;;;;;;;;;5028731;28;20104;-69
2022/01/04 07:36:30;;;;;;;159.35;92.90;;;;;;;;;;5015392;28;20030;-69
2022/01/04 07:38:58;;;;;;;173.90;99.35;;;;;;;;;;5015190;28;20014;-68
2022/01/04 07:41:29;;;;;;;227.52;115.63;;;;;;;;;;5014226;28;20378;-70
2022/01/04 07:43:56;;;;;;;183.35;94.45;;;;;;;;;;5014246;28;20434;-70
2022/01/04 07:46:25;;;;;;;108.03;63.35;;;;;;;;;;5021817;28;20034;-69
2022/01/04 07:48:52;;;;;;;98.05;55.40;;;;;;;;;;5034781;28;20018;-69
2022/01/04 07:51:24;;;;;;;89.03;51.45;;;;;;;;;;5025145;28;20347;-68
2022/01/04 07:54:13;;;;;;;86.65;50.22;;;;;;;;;;4991881;28;20080;-69
2022/01/04 07:56:41;;;;;;;73.30;42.80;;;;;;;;;;4992419;28;20169;-67
2022/01/04 07:59:08;;;;;;;72.75;43.30;;;;;;;;;;4991976;28;20341;-68
2022/01/04 08:01:36;;;;;;;72.40;43.92;;;;;;;;;;4977268;28;20022;-70
2022/01/04 08:04:07;;;;;;;59.40;36.90;;;;;;;;;;4992394;28;20027;-68
2022/01/04 08:06:36;;;;;;;53.88;34.53;;;;;;;;;;4976353;28;20142;-68
2022/01/04 08:09:06;;;;;;;53.83;33.80;;;;;;;;;;4993518;28;20153;-66
2022/01/04 08:11:34;;;;;;;62.35;36.65;;;;;;;;;;4996502;28;20034;-67
2022/01/04 08:14:01;;;;;;;55.53;33.95;;;;;;;;;;4996829;28;20026;-67
2022/01/04 08:16:29;;;;;;;48.78;32.70;;;;;;;;;;4996584;28;20030;-70
2022/01/04 08:18:57;;;;;;;55.63;35.35;;;;;;;;;;4977415;28;20474;-67
2022/01/04 08:21:25;;;;;;;54.65;32.22;;;;;;;;;;4995830;28;20030;-68
2022/01/04 08:23:53;;;;;;;51.53;31.70;;;;;;;;;;4977723;28;20031;-66
2022/01/04 08:26:21;;;;;;;50.58;32.20;;;;;;;;;;4995082;28;20084;-66
2022/01/04 08:28:48;;;;;;;46.45;30.00;;;;;;;;;;4995315;28;20027;-66
2022/01/04 08:31:15;;;;;;;49.42;32.15;;;;;;;;;;5002777;28;20037;-65
2022/01/04 08:33:43;;;;;;;54.20;33.47;;;;;;;;;;5024553;28;20030;-65
2022/01/04 08:36:11;;;;;;;51.90;30.38;;;;;;;;;;5027215;28;20363;-66
2022/01/04 08:38:39;;;;;;;66.68;37.25;;;;;;;;;;5028056;28;20054;-68
2022/01/04 08:41:07;;;;;;;54.67;32.35;;;;;;;;;;5027319;28;20056;-66
2022/01/04 08:43:34;;;;;;;47.38;27.95;;;;;;;;;;5034306;28;20029;-66
2022/01/04 08:46:02;;;;;;;49.00;27.92;;;;;;;;;;5021140;28;20053;-70
2022/01/04 08:48:29;;;;;;;38.65;23.42;;;;;;;;;;5026542;28;20029;-65
2022/01/04 08:50:57;;;;;;;38.00;23.27;;;;;;;;;;5024836;28;20135;-66
2022/01/04 08:53:24;;;;;;;35.75;23.20;;;;;;;;;;5027800;28;20020;-66
2022/01/04 08:55:52;;;;;;;34.28;22.38;;;;;;;;;;5023926;28;20030;-67
2022/01/04 08:58:20;;;;;;;155.35;90.13;;;;;;;;;;5026243;28;20519;-66
2022/01/04 09:00:48;;;;;;;79.90;49.70;;;;;;;;;;5025676;28;20041;-67
2022/01/04 09:03:15;;;;;;;54.65;35.05;;;;;;;;;;5026486;28;20330;-65
2022/01/04 09:05:43;;;;;;;41.75;26.70;;;;;;;;;;5025653;28;20022;-66
2022/01/04 09:08:11;;;;;;;41.22;26.23;;;;;;;;;;5021607;28;20026;-66
2022/01/04 09:10:39;;;;;;;39.22;25.90;;;;;;;;;;5017794;28;20026;-67
2022/01/04 09:13:15;;;;;;;32.17;21.63;;;;;;;;;;5017841;28;20022;-70
2022/01/04 09:20:56;;;;;;;32.22;19.27;;;;;;;;;;5026999;28;20060;-69
2022/01/04 09:23:24;;;;;;;32.83;20.40;;;;;;;;;;5028408;28;20026;-69
2022/01/04 09:25:54;;;;;;;30.50;18.92;;;;;;;;;;5026896;28;20038;-68
2022/01/04 09:28:24;;;;;;;33.13;20.02;;;;;;;;;;5022589;28;20034;-67
2022/01/04 09:30:52;;;;;;;33.58;20.85;;;;;;;;;;5023766;28;20083;-66
2022/01/04 09:33:20;;;;;;;35.80;21.35;;;;;;;;;;5025021;28;20021;-66
2022/01/04 09:35:51;;;;;;;43.55;24.75;;;;;;;;;;5006577;28;20030;-66
2022/01/04 09:38:19;;;;;;;52.45;30.50;;;;;;;;;;5022691;28;20155;-66
2022/01/04 09:40:49;;;;;;;47.03;26.52;;;;;;;;;;5008383;28;20037;-66
2022/01/04 09:43:18;;;;;;;39.25;25.40;;;;;;;;;;5012908;28;20081;-66
2022/01/04 09:45:45;;;;;;;42.10;26.00;;;;;;;;;;5011086;28;20038;-66
2022/01/04 09:48:13;;;;;;;38.47;24.88;;;;;;;;;;4997161;28;20131;-66
2022/01/04 09:50:40;;;;;;;45.40;27.80;;;;;;;;;;4997467;28;20050;-67
2022/01/04 09:53:09;;;;;;;48.78;29.20;;;;;;;;;;4986211;28;20109;-67
2022/01/04 09:55:42;;;;;;;44.60;27.50;;;;;;;;;;4974823;28;20027;-65
2022/01/04 09:58:13;;;;;;;48.08;27.75;;;;;;;;;;4991581;28;20041;-70
2022/01/04 10:00:41;;;;;;;46.38;28.42;;;;;;;;;;4989498;28;20747;-68
2022/01/04 10:03:16;;;;;;;57.75;36.80;;;;;;;;;;4973698;28;20109;-68
2022/01/04 10:05:44;;;;;;;68.25;41.50;;;;;;;;;;4993022;28;20067;-69
2022/01/04 10:08:13;;;;;;;64.50;36.88;;;;;;;;;;4994640;28;20142;-67
2022/01/04 10:10:41;;;;;;;72.07;40.92;;;;;;;;;;4994883;28;20026;-67
2022/01/04 10:13:15;;;;;;;77.38;43.03;;;;;;;;;;4995425;28;20038;-67
2022/01/04 10:15:47;;;;;;;70.95;39.30;;;;;;;;;;4978718;28;20034;-67
2022/01/04 10:18:16;;;;;;;59.75;35.90;;;;;;;;;;4995137;28;20030;-67
2022/01/04 10:20:48;;;;;;;71.63;39.70;;;;;;;;;;4979035;28;20109;-70
2022/01/04 10:23:17;;;;;;;88.63;48.88;;;;;;;;;;4985592;28;20119;-69
2022/01/04 10:25:45;;;;;;;112.35;60.00;;;;;;;;;;4975857;28;20035;-69
2022/01/04 10:28:13;;;;;;;119.82;66.18;;;;;;;;;;4993409;28;20062;-68
2022/01/04 10:30:44;;;;;;;118.65;66.45;;;;;;;;;;4978313;28;20109;-68
2022/01/04 10:33:14;;;;;;;142.93;76.47;;;;;;;;;;4982382;28;20045;-68
2022/01/04 10:35:45;;;;;;;140.15;75.55;;;;;;;;;;4997270;28;20031;-67
2022/01/04 10:38:22;;;;;;;119.18;64.95;;;;;;;;;;4997188;28;20435;-66
2022/01/04 10:41:05;;;;;;;105.93;57.72;;;;;;;;;;4996934;28;20430;-66
2022/01/04 10:43:37;;;;;;;90.43;50.58;;;;;;;;;;4997204;28;20531;-67
2022/01/04 10:46:05;;;;;;;95.43;51.20;;;;;;;;;;4997160;28;20082;-67
2022/01/04 10:48:39;;;;;;;87.30;47.47;;;;;;;;;;4997159;28;20046;-66
2022/01/04 10:51:32;;;;;;;76.47;43.72;;;;;;;;;;5036161;28;20071;-66
2022/01/04 10:54:00;;;;;;;70.07;38.00;;;;;;;;;;5031219;28;20044;-67
2022/01/04 10:56:34;;;;;;;64.13;37.90;;;;;;;;;;5036369;28;20100;-68
2022/01/04 10:59:07;;;;;;;68.25;37.15;;;;;;;;;;5035230;28;20021;-67
2022/01/04 11:02:00;;;;;;;90.40;48.22;;;;;;;;;;5036140;28;20097;-68
2022/01/04 11:04:27;;;;;;;119.88;60.08;;;;;;;;;;5032684;28;20041;-69
2022/01/04 11:07:02;;;;;;;110.18;57.00;;;;;;;;;;5035040;28;20112;-69
2022/01/04 11:09:30;;;;;;;116.63;61.10;;;;;;;;;;5036012;28;20434;-69
2022/01/04 11:11:58;;;;;;;118.60;61.20;;;;;;;;;;5034539;28;20033;-68
2022/01/04 11:14:27;;;;;;;116.78;60.70;;;;;;;;;;5034776;28;20037;-68
2022/01/04 11:16:55;;;;;;;118.85;60.25;;;;;;;;;;5036146;28;20040;-68
2022/01/04 11:19:23;;;;;;;119.00;61.20;;;;;;;;;;5035900;28;20026;-69
2022/01/04 11:21:51;;;;;;;117.55;59.70;;;;;;;;;;5034699;28;20075;-68
2022/01/04 11:24:20;;;;;;;99.15;54.20;;;;;;;;;;5035853;28;20163;-68
2022/01/04 11:26:49;;;;;;;106.18;55.00;;;;;;;;;;5035972;28;20022;-68
2022/01/04 11:29:17;;;;;;;104.13;55.75;;;;;;;;;;5035891;28;20036;-69
2022/01/04 11:32:02;;;;;;;105.47;57.70;;;;;;;;;;5034806;28;20036;-69
2022/01/04 11:34:51;;;;;;;134.27;71.20;;;;;;;;;;5035857;28;20034;-69
2022/01/04 11:37:19;;;;;;;143.40;81.32;;;;;;;;;;5034712;28;20124;-69
2022/01/04 11:39:47;;;;;;;129.40;70.15;;;;;;;;;;5034672;28;20022;-70
2022/01/04 11:42:37;;;;;;;145.45;83.15;;;;;;;;;;5035781;28;20030;-69
2022/01/04 11:45:07;;;;;;;177.85;94.18;;;;;;;;;;5039822;28;20028;-69
2022/01/04 11:47:37;;;;;;;160.10;85.82;;;;;;;;;;5039115;28;20108;-69
2022/01/04 11:50:16;;;;;;;176.43;96.28;;;;;;;;;;5038585;28;20136;-70
2022/01/04 11:52:59;;;;;;;159.63;89.68;;;;;;;;;;5038552;28;20026;-69
2022/01/04 11:55:34;;;;;;;158.27;86.40;;;;;;;;;;5038606;28;20021;-69
2022/01/04 11:58:14;;;;;;;210.23;119.10;;;;;;;;;;5039482;28;20064;-70
2022/01/04 12:01:07;;;;;;;149.45;83.50;;;;;;;;;;5038530;28;20029;-69
2022/01/04 12:03:42;;;;;;;172.68;91.22;;;;;;;;;;5036181;28;20033;-69
2022/01/04 12:06:11;;;;;;;163.85;86.93;;;;;;;;;;5038292;28;20025;-70
2022/01/04 12:08:47;;;;;;;98.93;54.72;;;;;;;;;;5038439;28;20026;-69
2022/01/04 12:11:29;;;;;;;88.25;49.40;;;;;;;;;;5038084;28;20112;-70
2022/01/04 12:14:02;;;;;;;82.10;49.08;;;;;;;;;;5038156;28;20033;-69
2022/01/04 12:16:39;;;;;;;83.88;50.08;;;;;;;;;;5039438;28;20116;-69
2022/01/04 12:19:08;;;;;;;103.75;59.58;;;;;;;;;;5039215;28;20025;-69
2022/01/04 12:21:46;;;;;;;114.80;65.60;;;;;;;;;;5039168;28;20018;-69
2022/01/04 12:24:15;;;;;;;153.52;91.15;;;;;;;;;;5038102;28;20029;-69
2022/01/04 12:26:43;;;;;;;138.10;78.88;;;;;;;;;;5038098;28;20083;-70
2022/01/04 12:29:11;;;;;;;158.02;91.40;;;;;;;;;;5038959;28;20028;-69
2022/01/04 12:31:52;;;;;;;156.90;93.22;;;;;;;;;;5038946;28;20021;-70
2022/01/04 12:34:36;;;;;;;141.82;86.05;;;;;;;;;;5037717;28;20021;-70
2022/01/04 12:37:05;;;;;;;122.43;70.88;;;;;;;;;;5037893;28;20120;-69
2022/01/04 12:39:35;;;;;;;96.13;54.97;;;;;;;;;;5037790;28;20033;-69
2022/01/04 12:42:03;;;;;;;88.88;49.25;;;;;;;;;;5038947;28;20295;-69
2022/01/04 12:44:31;;;;;;;86.05;49.58;;;;;;;;;;5037688;28;20036;-69
2022/01/04 12:46:59;;;;;;;81.97;48.03;;;;;;;;;;5037679;28;20075;-70
2022/01/04 12:49:26;;;;;;;82.75;48.20;;;;;;;;;;5038471;28;20045;-69
2022/01/04 12:51:54;;;;;;;75.93;44.03;;;;;;;;;;5038664;28;20025;-69
2022/01/04 12:54:22;;;;;;;79.68;46.65;;;;;;;;;;5037775;28;20329;-69
2022/01/04 12:56:59;;;;;;;91.35;51.53;;;;;;;;;;5037299;28;20354;-69
2022/01/04 12:59:33;;;;;;;84.53;49.78;;;;;;;;;;5038546;28;20022;-69
2022/01/04 13:02:04;;;;;;;106.57;58.42;;;;;;;;;;5038101;28;20021;-69
2022/01/04 13:04:34;;;;;;;95.55;51.97;;;;;;;;;;5037073;28;20036;-69
2022/01/04 13:07:06;;;;;;;95.10;50.80;;;;;;;;;;5038234;28;20052;-70
2022/01/04 13:09:34;;;;;;;86.97;49.28;;;;;;;;;;5037377;28;20105;-68
2022/01/04 13:12:01;;;;;;;86.97;48.30;;;;;;;;;;5038382;28;20091;-70
2022/01/04 13:14:32;;;;;;;80.53;46.85;;;;;;;;;;5038281;28;20029;-70
2022/01/04 13:17:09;;;;;;;70.47;43.35;;;;;;;;;;5037034;28;20120;-69
2022/01/04 13:19:37;;;;;;;69.25;38.95;;;;;;;;;;5036438;28;20102;-69
2022/01/04 13:22:14;;;;;;;65.03;37.80;;;;;;;;;;5019653;28;20516;-69
2022/01/04 13:24:58;;;;;;;60.80;36.55;;;;;;;;;;5036056;28;20045;-70
2022/01/04 13:27:41;;;;;;;70.03;41.78;;;;;;;;;;5019770;28;20033;-70
2022/01/04 13:30:13;;;;;;;86.82;47.67;;;;;;;;;;5036351;28;20371;-70
2022/01/04 13:32:47;;;;;;;105.25;53.50;;;;;;;;;;5036283;28;20036;-70
2022/01/04 13:35:28;;;;;;;106.03;54.88;;;;;;;;;;5036348;28;20033;-69
2022/01/04 13:37:59;;;;;;;107.18;55.08;;;;;;;;;;5036229;28;20109;-70
2022/01/04 13:40:27;;;;;;;108.60;54.22;;;;;;;;;;5036223;28;20033;-70
2022/01/04 13:43:14;;;;;;;95.43;50.42;;;;;;;;;;5036108;28;20041;-70
2022/01/04 13:45:48;;;;;;;94.78;50.85;;;;;;;;;;5019368;28;20041;-70
2022/01/04 13:48:29;;;;;;;86.45;46.80;;;;;;;;;;5036072;28;20358;-70
2022/01/04 13:51:17;;;;;;;80.80;44.10;;;;;;;;;;5029264;28;20046;-70
2022/01/04 13:53:46;;;;;;;89.00;46.55;;;;;;;;;;5036310;28;20116;-70
2022/01/04 13:56:20;;;;;;;93.38;50.78;;;;;;;;;;5037454;28;20331;-69
2022/01/04 13:58:54;;;;;;;89.95;48.70;;;;;;;;;;5037718;28;20037;-69
2022/01/04 14:01:37;;;;;;;74.80;41.10;;;;;;;;;;5036195;28;20079;-70
2022/01/04 14:04:12;;;;;;;55.22;30.23;;;;;;;;;;5036858;28;20026;-70
2022/01/04 14:06:52;;;;;;;66.85;35.38;;;;;;;;;;5036474;28;20033;-70
2022/01/04 14:09:33;;;;;;;94.25;49.00;;;;;;;;;;5038046;28;20026;-70
2022/01/04 14:12:10;;;;;;;64.80;37.35;;;;;;;;;;5036716;28;20028;-70
2022/01/04 14:14:51;;;;;;;50.95;29.65;;;;;;;;;;5037514;28;20025;-69
2022/01/04 14:17:30;;;;;;;201.02;107.05;;;;;;;;;;5036673;28;20021;-69
2022/01/04 14:20:12;;;;;;;183.55;98.88;;;;;;;;;;5037583;28;20058;-71
2022/01/04 14:22:44;;;;;;;182.10;88.30;;;;;;;;;;5037231;28;20021;-70
2022/01/04 14:25:19;;;;;;;170.77;86.60;;;;;;;;;;5045734;28;20449;-70
2022/01/04 14:27:51;;;;;;;314.17;146.20;;;;;;;;;;5039193;28;20031;-70
2022/01/04 14:30:26;;;;;;;317.73;164.48;;;;;;;;;;5038952;28;20110;-70
2022/01/04 14:32:57;;;;;;;363.55;172.70;;;;;;;;;;5041025;28;20116;-70
2022/01/04 14:35:26;;;;;;;313.92;144.30;;;;;;;;;;5037109;28;20026;-71
2022/01/04 14:37:56;;;;;;;326.77;157.80;;;;;;;;;;5037357;28;20030;-70
2022/01/04 14:40:25;;;;;;;310.55;157.93;;;;;;;;;;5037371;28;20026;-71